Time;durP1;ratioP1;P1;durP2;ratioP2;P2;SDS_P1;SDS_P2;PMS_P1;PMS_P2;Temp;Humidity;BMP_temperature;BMP_pressure;BME280_temperature;BME280_humidity;BME280_pressure;Samples;Min_cycle;Max_cycle;Signal;HPM_P1;HPM_P2
2023/05/22 00:00:37;;;;;;;6.00;4.00;;;;;;;19.59;45.93;101101.53;7397358;19;20018;-70
2023/05/22 00:03:09;;;;;;;4.45;3.80;;;;;;;19.56;46.01;101107.91;7398937;19;20019;-70
2023/05/22 00:05:39;;;;;;;5.13;4.18;;;;;;;19.52;45.90;101098.38;7399821;19;20070;-70
2023/05/22 00:08:10;;;;;;;7.95;4.03;;;;;;;19.50;45.82;101108.25;7399917;19;20038;-70
2023/05/22 00:10:39;;;;;;;5.63;3.70;;;;;;;19.45;46.24;101097.84;7399798;19;20074;-70
2023/05/22 00:13:07;;;;;;;5.35;4.15;;;;;;;19.42;46.18;101097.16;7398209;19;20111;-70
2023/05/22 00:15:36;;;;;;;5.53;3.65;;;;;;;19.39;46.24;101097.31;7398827;19;20014;-70
2023/05/22 00:18:05;;;;;;;7.65;3.85;;;;;;;19.36;46.42;101095.66;7398785;19;20035;-70
2023/05/22 00:20:37;;;;;;;5.00;3.70;;;;;;;19.34;46.55;101093.09;7396674;19;20408;-70
2023/05/22 00:23:08;;;;;;;5.22;4.05;;;;;;;19.31;46.38;101098.59;7398787;19;20025;-70
2023/05/22 00:25:37;;;;;;;4.47;3.35;;;;;;;19.27;46.89;101097.03;7399306;19;20086;-70
2023/05/22 00:28:06;;;;;;;4.78;3.92;;;;;;;19.25;46.99;101090.06;7398781;19;20018;-70
2023/05/22 00:30:35;;;;;;;6.30;4.57;;;;;;;19.21;47.03;101090.22;7398346;19;20018;-70
2023/05/22 00:33:03;;;;;;;8.63;4.35;;;;;;;19.18;46.90;101092.19;7397698;19;20482;-70
2023/05/22 00:35:32;;;;;;;4.55;3.90;;;;;;;19.15;47.21;101092.34;7398628;19;20090;-70
2023/05/22 00:38:05;;;;;;;4.55;4.13;;;;;;;19.12;47.42;101095.16;7398593;19;20019;-69
2023/05/22 00:40:34;;;;;;;7.80;3.90;;;;;;;19.07;47.35;101086.56;7396087;19;20014;-70
2023/05/22 00:43:07;;;;;;;4.68;4.07;;;;;;;19.04;47.27;101079.59;7397504;19;20035;-69
2023/05/22 00:45:35;;;;;;;6.03;3.85;;;;;;;19.00;47.03;101080.72;7396084;19;20513;-70
2023/05/22 00:48:04;;;;;;;6.32;3.92;;;;;;;18.96;47.04;101080.00;7398195;19;20041;-70
2023/05/22 00:50:33;;;;;;;8.30;4.43;;;;;;;18.92;47.15;101078.44;7397617;19;20019;-70
2023/05/22 00:53:04;;;;;;;4.07;3.60;;;;;;;18.92;47.23;101085.56;7397509;19;20035;-70
2023/05/22 00:55:33;;;;;;;7.85;5.00;;;;;;;18.89;47.25;101081.22;7395541;19;20036;-70
2023/05/22 00:58:06;;;;;;;4.95;3.65;;;;;;;18.86;47.57;101078.72;7397803;19;20022;-70
2023/05/22 01:00:35;;;;;;;5.55;3.58;;;;;;;18.83;47.57;101076.22;7396621;19;20098;-70
2023/05/22 01:03:06;;;;;;;5.10;3.75;;;;;;;18.82;47.36;101074.53;7397223;19;20041;-70
2023/05/22 01:05:35;;;;;;;3.90;3.33;;;;;;;18.75;47.74;101068.63;7397735;19;20018;-70
2023/05/22 01:08:07;;;;;;;7.32;3.28;;;;;;;18.75;47.93;101063.31;7398094;19;20018;-71
2023/05/22 01:10:37;;;;;;;4.13;3.63;;;;;;;18.72;47.54;101064.34;7400266;19;20427;-71
2023/05/22 01:13:15;;;;;;;5.28;4.05;;;;;;;18.70;47.67;101066.22;7400310;19;20481;-71
2023/05/22 01:15:53;;;;;;;5.45;3.50;;;;;;;18.64;47.82;101058.56;7398294;19;20015;-69
2023/05/22 01:18:32;;;;;;;4.68;3.38;;;;;;;18.65;48.00;101068.28;7396959;19;20032;-69
2023/05/22 01:21:10;;;;;;;5.75;3.55;;;;;;;18.57;48.35;101059.81;7395744;19;20014;-69
2023/05/22 01:24:14;;;;;;;5.80;3.08;;;;;;;18.58;48.06;101069.50;7396412;19;20018;-69
2023/05/22 01:27:07;;;;;;;3.85;3.53;;;;;;;18.55;48.25;101069.63;7397375;19;20014;-69
2023/05/22 01:29:45;;;;;;;4.20;3.15;;;;;;;18.45;47.94;101061.28;7397234;19;20037;-69
2023/05/22 01:32:21;;;;;;;4.82;3.42;;;;;;;18.47;47.99;101064.72;7396735;19;20029;-69
2023/05/22 01:34:55;;;;;;;5.47;3.65;;;;;;;18.46;48.08;101062.13;7394593;19;20028;-69
2023/05/22 01:37:25;;;;;;;5.18;3.38;;;;;;;18.42;48.46;101064.09;7396203;19;20017;-69
2023/05/22 01:39:55;;;;;;;4.97;4.20;;;;;;;18.39;48.67;101059.78;7395693;19;20010;-69
2023/05/22 01:42:23;;;;;;;12.20;3.88;;;;;;;18.32;48.37;101047.72;7396374;19;20019;-69
2023/05/22 01:44:52;;;;;;;6.70;3.72;;;;;;;18.31;48.68;101053.13;7394030;19;20007;-69
2023/05/22 01:47:23;;;;;;;3.97;3.08;;;;;;;18.29;48.83;101047.06;7395884;19;20478;-68
2023/05/22 01:49:52;;;;;;;4.82;3.60;;;;;;;18.26;48.75;101057.81;7396410;19;20015;-69
2023/05/22 01:52:28;;;;;;;4.90;3.20;;;;;;;18.23;48.81;101056.16;7394116;19;20018;-69
2023/05/22 01:55:02;;;;;;;4.20;3.80;;;;;;;18.19;49.13;101059.91;7394017;19;20498;-69
2023/05/22 01:57:38;;;;;;;4.35;3.40;;;;;;;18.17;48.75;101062.66;7396344;19;20018;-69
2023/05/22 02:00:12;;;;;;;6.20;4.13;;;;;;;18.07;49.14;101050.72;7395508;19;20035;-69
2023/05/22 02:02:46;;;;;;;4.18;3.40;;;;;;;18.07;49.26;101064.88;7395191;19;20512;-70
2023/05/22 02:05:18;;;;;;;6.85;3.55;;;;;;;18.04;49.24;101062.38;7396164;19;20018;-69
2023/05/22 02:07:49;;;;;;;5.38;3.75;;;;;;;18.00;49.46;101066.09;7395432;19;20028;-69
2023/05/22 02:10:18;;;;;;;3.95;3.35;;;;;;;17.98;49.75;101065.31;7395253;19;20363;-69
2023/05/22 02:12:47;;;;;;;7.28;3.90;;;;;;;17.95;49.56;101061.97;7395256;19;20023;-69
2023/05/22 02:15:16;;;;;;;6.22;3.90;;;;;;;17.92;49.88;101057.63;7394962;19;20514;-69
2023/05/22 02:17:48;;;;;;;6.90;4.00;;;;;;;17.88;49.58;101056.91;7394885;19;20014;-68
2023/05/22 02:20:23;;;;;;;4.22;3.83;;;;;;;17.87;49.62;101060.50;7394708;19;20018;-68
2023/05/22 02:22:52;;;;;;;4.53;3.40;;;;;;;17.83;50.03;101056.28;7394878;19;20035;-69
2023/05/22 02:25:20;;;;;;;5.72;3.42;;;;;;;17.80;50.02;101051.09;7394795;19;20018;-68
2023/05/22 02:27:49;;;;;;;5.22;3.95;;;;;;;17.78;50.17;101055.63;7394728;19;20381;-68
2023/05/22 02:30:18;;;;;;;5.40;3.70;;;;;;;17.74;50.08;101049.59;7395021;19;20006;-69
2023/05/22 02:32:56;;;;;;;3.88;3.50;;;;;;;17.73;50.19;101044.34;7394109;19;20023;-68
2023/05/22 02:35:24;;;;;;;7.22;3.97;;;;;;;17.70;50.39;101042.69;7395355;19;20015;-68
2023/05/22 02:37:53;;;;;;;4.28;3.88;;;;;;;17.69;50.10;101054.25;7394493;19;20035;-69
2023/05/22 02:40:21;;;;;;;7.63;3.88;;;;;;;17.68;50.19;101051.66;7393663;19;20028;-69
2023/05/22 02:42:50;;;;;;;5.43;4.47;;;;;;;17.65;50.33;101044.72;7394359;19;20014;-69
2023/05/22 02:45:18;;;;;;;6.32;3.70;;;;;;;17.58;50.58;101038.00;7392733;19;20421;-69
2023/05/22 02:47:50;;;;;;;6.25;4.35;;;;;;;17.59;50.66;101055.59;7394524;19;20010;-69
2023/05/22 02:50:19;;;;;;;5.32;4.13;;;;;;;17.56;50.40;101046.00;7394624;19;20026;-69
2023/05/22 02:52:48;;;;;;;5.70;4.20;;;;;;;17.53;50.89;101040.00;7393666;19;20031;-69
2023/05/22 02:55:16;;;;;;;6.88;4.25;;;;;;;17.49;50.92;101051.66;7394018;19;20041;-69
2023/05/22 02:57:45;;;;;;;6.25;3.97;;;;;;;17.45;50.68;101044.78;7393878;19;20018;-69
2023/05/22 03:00:14;;;;;;;5.57;4.43;;;;;;;17.41;51.26;101044.94;7393362;19;20010;-69
2023/05/22 03:02:43;;;;;;;4.68;4.00;;;;;;;17.39;51.13;101043.28;7393828;19;20031;-69
2023/05/22 03:05:16;;;;;;;4.53;4.03;;;;;;;17.35;51.17;101047.84;7393628;19;20480;-69
2023/05/22 03:07:45;;;;;;;6.68;4.13;;;;;;;17.33;51.28;101052.34;7394025;19;20025;-69
2023/05/22 03:10:13;;;;;;;8.20;4.20;;;;;;;17.31;51.40;101050.72;7393906;19;20074;-69
2023/05/22 03:12:41;;;;;;;6.32;4.15;;;;;;;17.28;51.61;101053.50;7393450;19;20031;-68
2023/05/22 03:15:12;;;;;;;5.65;4.22;;;;;;;17.25;51.71;101046.56;7393367;19;20019;-69
2023/05/22 03:17:40;;;;;;;4.88;4.07;;;;;;;17.21;51.60;101044.94;7393993;19;20031;-68
2023/05/22 03:20:15;;;;;;;6.70;4.50;;;;;;;17.19;51.67;101045.03;7397956;19;20022;-68
2023/05/22 03:22:47;;;;;;;8.75;4.45;;;;;;;17.16;51.82;101039.00;7401084;19;20014;-69
2023/05/22 03:25:15;;;;;;;5.03;3.83;;;;;;;17.13;52.01;101037.34;7401251;19;20018;-68
2023/05/22 03:27:44;;;;;;;6.85;4.10;;;;;;;17.08;51.89;101037.53;7400423;19;20022;-68
2023/05/22 03:30:13;;;;;;;4.60;3.80;;;;;;;17.05;52.14;101039.50;7401071;19;20407;-68
2023/05/22 03:32:42;;;;;;;4.53;3.63;;;;;;;17.03;52.46;101042.19;7397380;19;20007;-68
2023/05/22 03:35:14;;;;;;;4.63;3.70;;;;;;;17.00;52.35;101039.69;7400080;19;20490;-68
2023/05/22 03:37:42;;;;;;;4.30;3.90;;;;;;;16.97;52.54;101047.75;7400958;19;20037;-68
2023/05/22 03:40:14;;;;;;;4.78;3.88;;;;;;;16.93;52.84;101033.81;7399629;19;20018;-68
2023/05/22 03:42:43;;;;;;;6.38;4.80;;;;;;;16.92;52.88;101042.69;7399209;19;20018;-69
2023/05/22 03:45:12;;;;;;;5.85;4.30;;;;;;;16.89;53.01;101042.75;7398228;19;20521;-68
2023/05/22 03:47:41;;;;;;;7.32;4.20;;;;;;;16.87;53.05;101041.97;7399524;19;20031;-68
2023/05/22 03:50:10;;;;;;;7.30;4.70;;;;;;;16.86;52.90;101036.75;7400703;19;20027;-67
2023/05/22 03:52:38;;;;;;;6.95;4.68;;;;;;;16.84;53.32;101042.09;7399091;19;20032;-69
2023/05/22 03:55:08;;;;;;;6.35;4.82;;;;;;;16.84;52.99;101035.94;7399301;19;20493;-68
2023/05/22 03:57:40;;;;;;;7.13;4.10;;;;;;;16.83;53.30;101044.81;7399480;19;20015;-68
2023/05/22 04:00:12;;;;;;;7.50;4.57;;;;;;;16.81;53.59;101038.72;7399472;19;20022;-68
2023/05/22 04:02:43;;;;;;;5.30;4.43;;;;;;;16.77;53.43;101046.81;7396912;19;20014;-68
2023/05/22 04:05:12;;;;;;;9.00;5.07;;;;;;;16.76;53.64;101045.09;7396715;19;20018;-68
2023/05/22 04:07:40;;;;;;;6.40;4.57;;;;;;;16.74;53.77;101046.97;7398941;19;20477;-68
2023/05/22 04:10:10;;;;;;;6.03;4.40;;;;;;;16.74;53.89;101044.31;7399208;19;20014;-68
2023/05/22 04:12:41;;;;;;;6.75;4.25;;;;;;;16.73;53.97;101039.94;7398523;19;20034;-68
2023/05/22 04:15:10;;;;;;;8.38;4.47;;;;;;;16.73;53.66;101044.34;7398955;19;20018;-68
2023/05/22 04:17:41;;;;;;;5.00;4.15;;;;;;;16.73;53.97;101042.56;7398077;19;20506;-68
2023/05/22 04:20:10;;;;;;;9.85;4.70;;;;;;;16.72;53.97;101037.31;7398801;19;20032;-68
2023/05/22 04:22:39;;;;;;;5.55;4.28;;;;;;;16.69;54.17;101033.00;7398274;19;20011;-68
2023/05/22 04:25:09;;;;;;;12.98;5.25;;;;;;;16.74;53.96;101040.78;7399090;19;20014;-68
2023/05/22 04:27:37;;;;;;;8.05;4.90;;;;;;;16.73;54.04;101047.88;7398183;19;20376;-68
2023/05/22 04:30:10;;;;;;;5.80;4.35;;;;;;;16.74;54.42;101041.66;7394404;19;20470;-69
2023/05/22 04:32:39;;;;;;;10.63;6.15;;;;;;;16.75;54.36;101037.22;7397311;19;20019;-68
2023/05/22 04:35:09;;;;;;;5.97;4.45;;;;;;;16.75;54.14;101042.50;7395881;19;20041;-68
2023/05/22 04:37:39;;;;;;;5.47;4.85;;;;;;;16.78;54.13;101039.72;7396160;19;20002;-68
2023/05/22 04:40:10;;;;;;;19.60;12.50;;;;;;;16.78;54.47;101037.94;7397238;19;20373;-68
2023/05/22 04:42:39;;;;;;;7.10;5.85;;;;;;;16.80;54.25;101039.66;7397879;19;20022;-68
2023/05/22 04:45:12;;;;;;;24.23;15.52;;;;;;;16.81;54.68;101036.94;7396669;19;20010;-68
2023/05/22 04:47:41;;;;;;;6.65;5.30;;;;;;;16.84;54.65;101046.56;7398334;19;20014;-69
2023/05/22 04:50:10;;;;;;;5.82;4.82;;;;;;;16.83;54.35;101031.56;7397459;19;20014;-67
2023/05/22 04:52:39;;;;;;;12.13;5.13;;;;;;;16.87;54.70;101031.38;7397898;19;20369;-68
2023/05/22 04:55:10;;;;;;;11.50;5.30;;;;;;;16.88;54.38;101035.75;7397064;19;20489;-68
2023/05/22 04:57:39;;;;;;;8.93;4.50;;;;;;;16.88;54.57;101033.13;7397035;19;20078;-68
2023/05/22 05:00:12;;;;;;;7.25;5.43;;;;;;;16.93;54.67;101031.16;7396275;19;20034;-68
2023/05/22 05:02:41;;;;;;;9.57;6.20;;;;;;;16.97;54.88;101023.91;7395790;19;20174;-68
2023/05/22 05:05:10;;;;;;;8.13;5.53;;;;;;;17.01;54.76;101029.94;7394929;19;20510;-68
2023/05/22 05:07:40;;;;;;;8.10;4.97;;;;;;;17.04;54.96;101030.66;7392857;19;20372;-69
2023/05/22 05:10:10;;;;;;;6.30;5.38;;;;;;;17.07;54.45;101027.00;7396218;19;20478;-69
2023/05/22 05:12:38;;;;;;;8.15;5.50;;;;;;;17.13;54.54;101029.38;7396006;19;20038;-69
2023/05/22 05:15:11;;;;;;;7.25;5.18;;;;;;;17.17;54.59;101024.81;7396000;19;20011;-69
2023/05/22 05:17:39;;;;;;;7.13;5.65;;;;;;;17.16;54.72;101021.31;7395590;19;20026;-68
2023/05/22 05:20:13;;;;;;;7.30;5.60;;;;;;;17.20;54.55;101022.91;7393265;19;20006;-70
2023/05/22 05:22:42;;;;;;;6.85;5.45;;;;;;;17.26;54.70;101027.91;7395078;19;20085;-70
2023/05/22 05:25:11;;;;;;;8.02;5.78;;;;;;;17.31;54.62;101025.03;7396154;19;20014;-69
2023/05/22 05:27:40;;;;;;;14.25;6.07;;;;;;;17.37;54.33;101032.72;7395633;19;20031;-69
2023/05/22 05:30:12;;;;;;;7.07;5.78;;;;;;;17.43;54.38;101031.59;7396021;19;20026;-69
2023/05/22 05:32:40;;;;;;;7.72;5.47;;;;;;;17.49;54.35;101025.13;7395864;19;20360;-70
2023/05/22 05:35:10;;;;;;;5.97;5.38;;;;;;;17.51;54.56;101026.78;7396052;19;20022;-70
2023/05/22 05:37:38;;;;;;;8.52;6.75;;;;;;;17.55;54.19;101019.53;7395451;19;20417;-69
2023/05/22 05:40:08;;;;;;;11.77;6.07;;;;;;;17.63;54.09;101024.47;7395315;19;20022;-70
2023/05/22 05:42:37;;;;;;;11.40;6.90;;;;;;;17.68;54.02;101026.00;7392805;19;20019;-68
2023/05/22 05:45:06;;;;;;;10.00;6.38;;;;;;;17.72;54.23;101019.63;7394293;19;20490;-69
2023/05/22 05:47:37;;;;;;;8.13;6.25;;;;;;;17.79;53.85;101021.97;7395258;19;20031;-68
2023/05/22 05:50:07;;;;;;;6.43;5.82;;;;;;;17.82;53.69;101021.81;7396398;19;20015;-69
2023/05/22 05:52:35;;;;;;;7.93;6.05;;;;;;;17.88;53.96;101027.72;7395285;19;20018;-69
2023/05/22 05:55:04;;;;;;;8.23;5.97;;;;;;;17.89;53.85;101024.13;7395896;19;20027;-69
2023/05/22 05:57:33;;;;;;;8.35;6.38;;;;;;;17.93;53.90;101027.47;7395164;19;20531;-68
2023/05/22 06:00:01;;;;;;;7.30;5.90;;;;;;;17.98;53.83;101022.84;7394992;19;20531;-67
2023/05/22 06:02:30;;;;;;;12.73;8.20;;;;;;;18.04;53.79;101019.03;7393084;19;20404;-67
2023/05/22 06:05:01;;;;;;;7.70;6.00;;;;;;;18.09;53.76;101018.81;7394319;19;20021;-66
2023/05/22 06:07:30;;;;;;;8.55;5.65;;;;;;;18.15;53.72;101021.19;7394487;19;20074;-68
2023/05/22 06:10:00;;;;;;;14.88;6.82;;;;;;;18.17;53.34;101013.97;7394946;19;20028;-67
2023/05/22 06:12:28;;;;;;;8.80;5.93;;;;;;;18.22;53.52;101019.91;7394714;19;20382;-68
2023/05/22 06:14:57;;;;;;;8.27;5.47;;;;;;;18.24;53.55;101010.09;7394943;19;20503;-67
2023/05/22 06:17:26;;;;;;;8.35;5.43;;;;;;;18.25;53.73;101011.81;7394766;19;20027;-67
2023/05/22 06:19:54;;;;;;;11.48;6.68;;;;;;;18.32;53.41;101010.56;7395123;19;20082;-68
2023/05/22 06:22:28;;;;;;;9.55;5.68;;;;;;;18.36;53.65;101014.78;7393479;19;20023;-67
2023/05/22 06:24:56;;;;;;;7.40;5.45;;;;;;;18.42;53.28;101013.63;7392970;19;20038;-67
2023/05/22 06:27:26;;;;;;;6.03;5.38;;;;;;;18.46;53.52;101020.47;7394943;19;20019;-69
2023/05/22 06:29:55;;;;;;;12.30;5.82;;;;;;;18.51;53.43;101022.91;7394347;19;20024;-68
2023/05/22 06:32:24;;;;;;;8.30;5.90;;;;;;;18.56;53.43;101023.53;7394583;19;20014;-67
2023/05/22 06:34:52;;;;;;;7.75;4.78;;;;;;;18.61;53.65;101018.84;7392194;19;20019;-66
2023/05/22 06:37:21;;;;;;;19.17;4.97;;;;;;;18.68;53.88;101019.41;7394407;19;20019;-66
2023/05/22 06:39:52;;;;;;;9.05;5.43;;;;;;;18.74;53.85;101019.09;7394280;19;20019;-67
2023/05/22 06:42:20;;;;;;;9.98;5.35;;;;;;;18.81;53.55;101014.31;7392650;19;20026;-67
2023/05/22 06:45:02;;;;;;;7.38;5.65;;;;;;;18.86;53.77;101012.28;7391372;19;20022;-68
2023/05/22 06:47:30;;;;;;;10.93;5.60;;;;;;;18.94;53.34;101020.72;7394619;19;20014;-67
2023/05/22 06:49:59;;;;;;;34.40;9.15;;;;;;;19.01;53.35;101021.28;7393685;19;20011;-68
2023/05/22 06:52:28;;;;;;;13.82;5.95;;;;;;;19.10;53.07;101011.97;7393590;19;20025;-67
2023/05/22 06:55:03;;;;;;;7.32;5.63;;;;;;;19.17;53.17;101018.66;7395674;19;20022;-69
2023/05/22 06:57:31;;;;;;;8.80;6.03;;;;;;;19.26;52.95;101019.94;7400903;19;20031;-70
2023/05/22 07:00:00;;;;;;;7.40;6.35;;;;;;;19.33;52.85;101024.84;7400712;19;20024;-69
2023/05/22 07:02:29;;;;;;;8.10;6.28;;;;;;;19.42;52.88;101022.66;7398442;19;20018;-68
2023/05/22 07:04:57;;;;;;;8.60;6.57;;;;;;;19.48;52.63;101019.66;7400651;19;20074;-67
2023/05/22 07:07:26;;;;;;;9.10;7.15;;;;;;;19.51;52.29;101015.03;7400600;19;20027;-67
2023/05/22 07:09:54;;;;;;;7.35;6.57;;;;;;;19.59;52.11;101017.28;7400244;19;20022;-67
2023/05/22 07:12:27;;;;;;;10.10;7.97;;;;;;;19.66;52.52;101023.97;7400582;19;20014;-67
2023/05/22 07:14:56;;;;;;;10.93;8.43;;;;;;;19.75;51.94;101019.06;7397603;19;20025;-68
2023/05/22 07:17:25;;;;;;;10.35;8.40;;;;;;;19.83;52.22;101020.38;7399454;19;20482;-68
2023/05/22 07:19:53;;;;;;;12.63;8.15;;;;;;;19.92;51.62;101019.00;7399939;19;20049;-69
2023/05/22 07:22:22;;;;;;;9.88;7.97;;;;;;;19.98;51.91;101015.13;7398047;19;20386;-69
2023/05/22 07:24:50;;;;;;;12.55;8.00;;;;;;;20.09;51.69;101014.53;7398067;19;20022;-69
2023/05/22 07:27:19;;;;;;;9.32;8.10;;;;;;;20.19;51.72;101023.69;7399389;19;20031;-68
2023/05/22 07:29:50;;;;;;;9.13;7.50;;;;;;;20.28;51.23;101019.63;7399668;19;20394;-67
2023/05/22 07:32:18;;;;;;;10.50;7.78;;;;;;;20.35;51.53;101021.84;7399425;19;20018;-68
2023/05/22 07:34:47;;;;;;;9.32;8.10;;;;;;;20.45;51.19;101021.34;7396865;19;20035;-67
2023/05/22 07:37:17;;;;;;;13.52;8.63;;;;;;;20.55;51.24;101022.50;7399063;19;20010;-70
2023/05/22 07:39:45;;;;;;;10.88;8.57;;;;;;;20.63;50.54;101019.38;7399411;19;20050;-71
2023/05/22 07:42:14;;;;;;;11.40;7.68;;;;;;;20.73;50.39;101025.06;7398034;19;20027;-68
2023/05/22 07:44:43;;;;;;;10.15;8.05;;;;;;;20.81;50.16;101017.44;7397023;19;20022;-70
2023/05/22 07:47:14;;;;;;;9.20;6.95;;;;;;;20.90;49.79;101010.69;7397712;19;20010;-70
2023/05/22 07:49:43;;;;;;;10.23;7.20;;;;;;;20.98;49.87;101009.25;7400058;19;20022;-67
2023/05/22 07:52:11;;;;;;;10.68;7.20;;;;;;;21.11;50.07;101011.19;7399255;19;20094;-69
2023/05/22 07:54:40;;;;;;;7.57;6.82;;;;;;;21.23;49.29;101013.09;7397476;19;20027;-71
2023/05/22 07:57:11;;;;;;;9.48;6.85;;;;;;;21.34;49.22;101003.56;7398823;19;20358;-68
2023/05/22 07:59:42;;;;;;;8.05;7.13;;;;;;;21.50;49.18;101004.28;7400486;19;20021;-69
2023/05/22 08:02:11;;;;;;;9.23;6.38;;;;;;;21.64;49.04;101000.75;7398198;19;20019;-69
2023/05/22 08:04:43;;;;;;;9.23;6.13;;;;;;;21.80;48.66;101000.63;7396231;19;20492;-68
2023/05/22 08:07:11;;;;;;;11.57;6.20;;;;;;;21.94;48.45;101008.59;7399569;19;20015;-69
2023/05/22 08:09:40;;;;;;;8.95;6.30;;;;;;;22.09;47.38;101005.84;7398686;19;20086;-68
2023/05/22 08:12:09;;;;;;;7.28;5.72;;;;;;;22.22;47.60;101004.09;7399105;19;20023;-68
2023/05/22 08:14:38;;;;;;;10.55;5.88;;;;;;;22.33;46.85;100991.81;7396828;19;20019;-68
2023/05/22 08:17:07;;;;;;;6.20;5.38;;;;;;;22.49;46.95;101002.38;7398938;19;20032;-69
2023/05/22 08:19:35;;;;;;;7.75;6.55;;;;;;;22.60;46.55;100997.16;7396746;19;20022;-68
2023/05/22 08:22:06;;;;;;;7.85;6.43;;;;;;;22.72;45.71;100995.44;7397700;19;20027;-69
2023/05/22 08:24:35;;;;;;;7.93;6.20;;;;;;;22.83;46.17;100994.69;7396163;19;20019;-68
2023/05/22 08:27:03;;;;;;;7.13;5.95;;;;;;;22.92;45.68;101000.28;7398539;19;20039;-68
2023/05/22 08:29:32;;;;;;;7.18;5.97;;;;;;;23.04;45.58;100995.88;7398452;19;20019;-68
2023/05/22 08:32:01;;;;;;;8.13;5.40;;;;;;;23.16;45.41;100996.00;7397701;19;20011;-68
2023/05/22 08:34:31;;;;;;;14.70;6.10;;;;;;;23.23;44.65;100991.94;7395770;19;20015;-68
2023/05/22 08:37:00;;;;;;;6.63;5.43;;;;;;;23.32;44.41;100988.59;7398614;19;20025;-67
2023/05/22 08:39:31;;;;;;;7.60;5.38;;;;;;;23.38;43.88;100984.59;7397534;19;20020;-68
2023/05/22 08:42:01;;;;;;;7.82;5.50;;;;;;;23.46;44.02;100990.25;7395736;19;20028;-68
2023/05/22 08:44:29;;;;;;;8.60;5.13;;;;;;;23.51;43.79;100984.59;7395821;19;20021;-68
2023/05/22 08:46:59;;;;;;;6.15;4.68;;;;;;;23.52;43.27;100980.91;7396070;19;20027;-68
2023/05/22 08:49:28;;;;;;;7.55;5.40;;;;;;;23.60;43.26;100978.53;7397866;19;20121;-68
2023/05/22 08:52:01;;;;;;;9.82;5.60;;;;;;;23.63;42.82;100978.31;7397760;19;20010;-68
2023/05/22 08:54:35;;;;;;;7.72;5.90;;;;;;;23.68;42.62;100977.97;7396477;19;20018;-68
2023/05/22 08:57:04;;;;;;;7.32;6.53;;;;;;;23.72;42.63;100976.78;7397455;19;20031;-68
2023/05/22 08:59:33;;;;;;;7.80;6.80;;;;;;;23.77;43.18;100973.78;7397932;19;20022;-68
2023/05/22 09:02:02;;;;;;;7.75;5.70;;;;;;;23.82;42.75;100974.28;7396131;19;20482;-68
2023/05/22 09:04:30;;;;;;;7.25;5.80;;;;;;;23.87;42.65;100967.63;7395888;19;20027;-68
2023/05/22 09:07:04;;;;;;;7.60;5.63;;;;;;;23.94;42.77;100967.19;7397289;19;20018;-68
2023/05/22 09:09:38;;;;;;;6.55;5.28;;;;;;;23.98;42.53;100961.47;7396745;19;20019;-68
2023/05/22 09:12:10;;;;;;;10.05;4.97;;;;;;;24.02;42.27;100965.66;7396816;19;20497;-68
2023/05/22 09:14:42;;;;;;;9.57;5.73;;;;;;;23.99;41.64;100957.00;7395402;19;20021;-68
2023/05/22 09:17:13;;;;;;;9.52;4.90;;;;;;;24.06;42.17;100963.56;7395317;19;20041;-67
2023/05/22 09:19:45;;;;;;;16.08;4.85;;;;;;;24.11;41.80;100963.25;7398667;19;20022;-67
2023/05/22 09:22:14;;;;;;;9.65;4.35;;;;;;;24.14;41.72;100955.81;7396947;19;20021;-68
2023/05/22 09:24:46;;;;;;;10.55;3.88;;;;;;;24.17;40.99;100949.38;7395107;19;20015;-68
2023/05/22 09:27:15;;;;;;;12.10;4.32;;;;;;;24.20;41.05;100952.69;7397080;19;20035;-67
2023/05/22 09:29:51;;;;;;;7.28;4.35;;;;;;;24.26;40.75;100953.19;7396745;19;20041;-69
2023/05/22 09:32:20;;;;;;;6.85;3.88;;;;;;;24.28;40.87;100944.03;7396278;19;20039;-68
2023/05/22 09:34:48;;;;;;;9.38;3.67;;;;;;;24.34;40.85;100946.25;7394207;19;20047;-68
2023/05/22 09:37:18;;;;;;;7.07;3.83;;;;;;;24.39;40.35;100938.72;7395780;19;20006;-69
2023/05/22 09:39:51;;;;;;;9.02;3.72;;;;;;;24.51;40.14;100926.16;7395609;19;20506;-68
2023/05/22 09:42:20;;;;;;;5.47;3.85;;;;;;;24.59;40.30;100930.94;7395926;19;20015;-68
2023/05/22 09:44:50;;;;;;;6.18;3.90;;;;;;;24.69;39.76;100931.97;7394034;19;20459;-70
2023/05/22 09:47:19;;;;;;;10.80;4.13;;;;;;;24.81;39.57;100937.34;7393921;19;20027;-72
2023/05/22 09:49:47;;;;;;;5.75;3.90;;;;;;;24.92;39.61;100933.78;7395765;19;20036;-69
2023/05/22 09:52:18;;;;;;;8.10;3.40;;;;;;;25.03;39.11;100931.09;7395493;19;20015;-69
2023/05/22 09:54:53;;;;;;;6.57;3.95;;;;;;;25.16;38.46;100922.91;7394073;19;20078;-69
2023/05/22 09:57:23;;;;;;;9.90;4.28;;;;;;;25.24;38.87;100922.28;7395499;19;20163;-68
2023/05/22 09:59:57;;;;;;;8.15;3.70;;;;;;;25.36;38.71;100924.00;7395268;19;20022;-69
2023/05/22 10:02:27;;;;;;;6.20;3.80;;;;;;;25.47;38.43;100929.34;7395062;19;20015;-69
2023/05/22 10:04:56;;;;;;;4.22;3.33;;;;;;;25.57;38.01;100921.41;7393163;19;20018;-71
2023/05/22 10:07:31;;;;;;;4.55;3.58;;;;;;;25.66;37.54;100927.84;7395303;19;20006;-69
2023/05/22 10:10:08;;;;;;;5.97;3.40;;;;;;;25.78;37.51;100916.09;7394540;19;20489;-70
2023/05/22 10:12:43;;;;;;;9.35;3.60;;;;;;;25.88;36.67;100928.75;7394520;19;20506;-71
2023/05/22 10:15:13;;;;;;;6.97;3.42;;;;;;;25.97;37.04;100919.88;7395265;19;20503;-70
2023/05/22 10:17:42;;;;;;;4.95;3.92;;;;;;;26.09;36.56;100918.06;7394651;19;20079;-68
2023/05/22 10:20:13;;;;;;;8.43;3.33;;;;;;;26.18;36.20;100923.50;7395099;19;20010;-68
2023/05/22 10:22:42;;;;;;;3.85;3.20;;;;;;;26.28;36.05;100918.16;7394446;19;20022;-68
2023/05/22 10:25:13;;;;;;;5.82;3.65;;;;;;;26.36;35.63;100914.81;7394382;19;20019;-69
2023/05/22 10:27:43;;;;;;;5.60;3.70;;;;;;;26.46;35.80;100904.13;7396372;19;20010;-68
2023/05/22 10:30:23;;;;;;;5.80;4.07;;;;;;;26.55;35.46;100910.53;7403242;19;20014;-68
2023/05/22 10:32:57;;;;;;;8.40;3.50;;;;;;;26.64;35.09;100910.59;7402172;19;20497;-68
2023/05/22 10:35:34;;;;;;;7.80;3.30;;;;;;;26.73;34.97;100908.97;7402148;19;20014;-69
2023/05/22 10:38:26;;;;;;;8.48;3.45;;;;;;;26.79;34.69;100905.75;7404060;19;20013;-71
2023/05/22 10:40:58;;;;;;;5.32;3.58;;;;;;;26.81;34.68;100892.97;7401587;19;20423;-71
2023/05/22 10:43:31;;;;;;;4.10;3.28;;;;;;;26.81;35.18;100892.16;7402185;19;20031;-73
2023/05/22 10:46:04;;;;;;;5.28;3.45;;;;;;;26.82;34.75;100897.38;7401006;19;20034;-73
2023/05/22 10:48:39;;;;;;;5.82;3.75;;;;;;;26.80;34.34;100887.75;7401598;19;20087;-71
2023/05/22 10:51:09;;;;;;;6.30;3.40;;;;;;;26.88;34.92;100887.94;7402129;19;20015;-72
2023/05/22 10:53:39;;;;;;;6.10;3.42;;;;;;;26.94;34.25;100876.63;7399846;19;20441;-71
2023/05/22 10:56:14;;;;;;;7.45;2.88;;;;;;;27.02;33.60;100880.44;7401596;19;20022;-72
2023/05/22 10:58:46;;;;;;;5.78;3.08;;;;;;;27.08;33.42;100866.44;7401950;19;20046;-72
2023/05/22 11:01:16;;;;;;;4.22;3.25;;;;;;;27.19;33.30;100873.56;7402001;19;20031;-74
2023/05/22 11:03:55;;;;;;;3.33;2.83;;;;;;;27.24;32.34;100873.97;7398829;19;20478;-71
2023/05/22 11:06:35;;;;;;;8.00;3.38;;;;;;;27.29;32.81;100869.88;7401762;19;20019;-72
2023/05/22 11:09:20;;;;;;;5.45;2.75;;;;;;;27.32;32.49;100868.72;7400481;19;20018;-71
2023/05/22 11:12:15;;;;;;;4.95;3.10;;;;;;;27.31;32.19;100862.50;7400631;19;20019;-72
2023/05/22 11:14:44;;;;;;;7.13;3.03;;;;;;;27.34;32.80;100869.47;7398066;19;20031;-72
2023/05/22 11:17:17;;;;;;;5.70;3.03;;;;;;;27.36;32.46;100867.47;7400611;19;20022;-72
2023/05/22 11:19:45;;;;;;;6.90;3.45;;;;;;;27.38;32.01;100864.66;7401077;19;20041;-72
2023/05/22 11:22:14;;;;;;;5.80;3.30;;;;;;;27.40;32.53;100866.25;7400004;19;20018;-71
2023/05/22 11:24:43;;;;;;;4.82;3.10;;;;;;;27.48;31.86;100855.59;7397282;19;20019;-73
2023/05/22 11:27:14;;;;;;;6.13;3.83;;;;;;;27.58;31.55;100855.59;7399875;19;20018;-69
2023/05/22 11:29:43;;;;;;;6.35;3.80;;;;;;;27.62;32.14;100848.94;7399798;19;20032;-71
2023/05/22 11:32:18;;;;;;;5.45;2.75;;;;;;;27.73;31.31;100857.88;7399957;19;20027;-72
2023/05/22 11:34:49;;;;;;;10.02;3.40;;;;;;;27.78;31.62;100847.53;7397478;19;20014;-71
2023/05/22 11:37:20;;;;;;;4.28;3.20;;;;;;;27.91;30.45;100849.91;7400835;19;20085;-72
2023/05/22 11:39:52;;;;;;;5.70;3.35;;;;;;;28.04;30.71;100842.38;7399127;19;20018;-72